PWSweather.com
Personal Weather Stations
Station Observations
DW1039
Liberty & Fairfield Townships, Hamilton, OH 45011

Liberty & Fairfield TownshipsHamilton, OH 45011

Lat: 39.3933, Lon: -84.477

Elevation: 780

Station Type: Davis Vantage Pro2 (Daytime Fan Aspirated)

http://www.lfweathercenter.com/

High Low Average
Temperature 78.2°F25.7°C 49.6°F9.8°C 64.8°F18.2°C
Dew Point 54.6°F12.6°C 44.7°F7.1°C 49.3°F9.6°C
Winds 10.0 mph 16.1 kmh Calm Calm 1.0 mph SSW1.6 kmh SSW
Wind Gusts 19.0 mph30.6 kmh -- 4.0 mph6.4 kmh
Humidity 85% 36% 60%
Pressure 30.14 in1020.7 mb 30.06 in1017.9 mb -
Precipitation 0.00 in0.0 mm - -
Hour Temp Dew Point Humidity Winds Wind Gusts Pressure Precip Precip Rate Daily Precip Total
12:00 AM 56.4°F13.6°C 46.0°F7.8°C 68% Calm Calm -- 30.07 in1018.3 mb 0.00 in0.0 mm 0.00 in0.0 mm 0.00 in0.0 mm
12:10 AM 56.4°F13.6°C 46.0°F7.8°C 68% Calm Calm -- 30.07 in1018.3 mb 0.00 in0.0 mm 0.00 in0.0 mm 0.00 in0.0 mm
12:20 AM 56.4°F13.6°C 46.0°F7.8°C 68% Calm Calm -- 30.06 in1017.9 mb 0.00 in0.0 mm 0.00 in0.0 mm 0.00 in0.0 mm
12:30 AM 56.0°F13.3°C 46.0°F7.8°C 69% Calm Calm -- 30.07 in1018.3 mb 0.00 in0.0 mm 0.00 in0.0 mm 0.00 in0.0 mm
12:40 AM 55.7°F13.2°C 45.7°F7.6°C 69% Calm Calm -- 30.07 in1018.3 mb 0.00 in0.0 mm 0.00 in0.0 mm 0.00 in0.0 mm
12:50 AM 55.6°F13.1°C 45.6°F7.6°C 69% Calm Calm -- 30.07 in1018.3 mb 0.00 in0.0 mm 0.00 in0.0 mm 0.00 in0.0 mm
01:00 AM 55.6°F13.1°C 45.6°F7.6°C 69% Calm Calm 1.0 mph1.6 kmh 30.07 in1018.3 mb 0.00 in0.0 mm 0.00 in0.0 mm 0.00 in0.0 mm
01:10 AM 55.7°F13.2°C 46.1°F7.8°C 70% Calm Calm -- 30.07 in1018.3 mb 0.00 in0.0 mm 0.00 in0.0 mm 0.00 in0.0 mm
01:20 AM 55.5°F13.1°C 46.3°F7.9°C 71% Calm Calm 1.0 mph1.6 kmh 30.07 in1018.3 mb 0.00 in0.0 mm 0.00 in0.0 mm 0.00 in0.0 mm
01:30 AM 55.4°F13.0°C 46.2°F7.9°C 71% Calm Calm -- 30.07 in1018.3 mb 0.00 in0.0 mm 0.00 in0.0 mm 0.00 in0.0 mm
01:40 AM 55.3°F12.9°C 46.8°F8.2°C 73% Calm Calm 1.0 mph1.6 kmh 30.07 in1018.3 mb 0.00 in0.0 mm 0.00 in0.0 mm 0.00 in0.0 mm
01:50 AM 55.0°F12.8°C 46.5°F8.1°C 73% Calm Calm 1.0 mph1.6 kmh 30.07 in1018.3 mb 0.00 in0.0 mm 0.00 in0.0 mm 0.00 in0.0 mm
02:00 AM 54.9°F12.7°C 46.8°F8.2°C 74% Calm Calm 1.0 mph1.6 kmh 30.07 in1018.3 mb 0.00 in0.0 mm 0.00 in0.0 mm 0.00 in0.0 mm
02:10 AM 55.0°F12.8°C 46.9°F8.3°C 74% Calm Calm 1.0 mph1.6 kmh 30.07 in1018.3 mb 0.00 in0.0 mm 0.00 in0.0 mm 0.00 in0.0 mm
02:20 AM 54.9°F12.7°C 46.8°F8.2°C 74% Calm Calm 1.0 mph1.6 kmh 30.07 in1018.3 mb 0.00 in0.0 mm 0.00 in0.0 mm 0.00 in0.0 mm
02:30 AM 54.5°F12.5°C 46.4°F8.0°C 74% Calm Calm 1.0 mph1.6 kmh 30.07 in1018.3 mb 0.00 in0.0 mm 0.00 in0.0 mm 0.00 in0.0 mm
02:40 AM 54.1°F12.3°C 46.4°F8.0°C 75% Calm Calm -- 30.07 in1018.3 mb 0.00 in0.0 mm 0.00 in0.0 mm 0.00 in0.0 mm
02:50 AM 53.5°F11.9°C 46.1°F7.8°C 76% Calm Calm -- 30.07 in1018.3 mb 0.00 in0.0 mm 0.00 in0.0 mm 0.00 in0.0 mm
03:00 AM 53.2°F11.8°C 46.2°F7.9°C 77% Calm Calm -- 30.07 in1018.3 mb 0.00 in0.0 mm 0.00 in0.0 mm 0.00 in0.0 mm
03:10 AM 52.8°F11.6°C 46.1°F7.8°C 78% Calm Calm -- 30.07 in1018.3 mb 0.00 in0.0 mm 0.00 in0.0 mm 0.00 in0.0 mm
03:20 AM 52.6°F11.4°C 46.3°F7.9°C 79% Calm Calm 1.0 mph1.6 kmh 30.07 in1018.3 mb 0.00 in0.0 mm 0.00 in0.0 mm 0.00 in0.0 mm
03:30 AM 52.2°F11.2°C 45.9°F7.7°C 79% Calm Calm -- 30.07 in1018.3 mb 0.00 in0.0 mm 0.00 in0.0 mm 0.00 in0.0 mm
03:40 AM 52.0°F11.1°C 45.7°F7.6°C 79% Calm Calm -- 30.07 in1018.3 mb 0.00 in0.0 mm 0.00 in0.0 mm 0.00 in0.0 mm
03:50 AM 51.9°F11.1°C 45.9°F7.7°C 80% Calm Calm -- 30.08 in1018.6 mb 0.00 in0.0 mm 0.00 in0.0 mm 0.00 in0.0 mm
04:00 AM 51.7°F10.9°C 45.7°F7.6°C 80% Calm Calm -- 30.08 in1018.6 mb 0.00 in0.0 mm 0.00 in0.0 mm 0.00 in0.0 mm
04:10 AM 51.7°F10.9°C 45.7°F7.6°C 80% Calm Calm -- 30.08 in1018.6 mb 0.00 in0.0 mm 0.00 in0.0 mm 0.00 in0.0 mm
04:20 AM 51.5°F10.8°C 45.9°F7.7°C 81% Calm Calm -- 30.08 in1018.6 mb 0.00 in0.0 mm 0.00 in0.0 mm 0.00 in0.0 mm
04:30 AM 51.3°F10.7°C 45.7°F7.6°C 81% Calm Calm -- 30.08 in1018.6 mb 0.00 in0.0 mm 0.00 in0.0 mm 0.00 in0.0 mm
04:40 AM 51.1°F10.6°C 45.5°F7.5°C 81% Calm Calm -- 30.08 in1018.6 mb 0.00 in0.0 mm 0.00 in0.0 mm 0.00 in0.0 mm
04:50 AM 50.9°F10.5°C 45.6°F7.6°C 82% Calm Calm -- 30.09 in1019.0 mb 0.00 in0.0 mm 0.00 in0.0 mm 0.00 in0.0 mm
05:00 AM 50.5°F10.3°C 45.2°F7.3°C 82% Calm Calm -- 30.09 in1019.0 mb 0.00 in0.0 mm 0.00 in0.0 mm 0.00 in0.0 mm
05:10 AM 50.3°F10.2°C 45.0°F7.2°C 82% Calm Calm -- 30.09 in1019.0 mb 0.00 in0.0 mm 0.00 in0.0 mm 0.00 in0.0 mm
05:20 AM 50.1°F10.1°C 44.8°F7.1°C 82% Calm Calm -- 30.09 in1019.0 mb 0.00 in0.0 mm 0.00 in0.0 mm 0.00 in0.0 mm
05:30 AM 50.0°F10.0°C 45.1°F7.3°C 83% Calm Calm -- 30.09 in1019.0 mb 0.00 in0.0 mm 0.00 in0.0 mm 0.00 in0.0 mm
05:40 AM 50.0°F10.0°C 45.1°F7.3°C 83% Calm Calm -- 30.09 in1019.0 mb 0.00 in0.0 mm 0.00 in0.0 mm 0.00 in0.0 mm
05:50 AM 49.9°F9.9°C 45.0°F7.2°C 83% Calm Calm -- 30.09 in1019.0 mb 0.00 in0.0 mm 0.00 in0.0 mm 0.00 in0.0 mm
06:00 AM 49.6°F9.8°C 44.7°F7.1°C 83% Calm Calm -- 30.09 in1019.0 mb 0.00 in0.0 mm 0.00 in0.0 mm 0.00 in0.0 mm
06:10 AM 49.8°F9.9°C 45.2°F7.3°C 84% Calm Calm -- 30.10 in1019.3 mb 0.00 in0.0 mm 0.00 in0.0 mm 0.00 in0.0 mm
06:20 AM 49.9°F9.9°C 45.3°F7.4°C 84% Calm Calm -- 30.10 in1019.3 mb 0.00 in0.0 mm 0.00 in0.0 mm 0.00 in0.0 mm
06:30 AM 49.7°F9.8°C 45.1°F7.3°C 84% Calm Calm -- 30.10 in1019.3 mb 0.00 in0.0 mm 0.00 in0.0 mm 0.00 in0.0 mm
06:40 AM 49.6°F9.8°C 45.0°F7.2°C 84% Calm Calm -- 30.10 in1019.3 mb 0.00 in0.0 mm 0.00 in0.0 mm 0.00 in0.0 mm
06:50 AM 49.8°F9.9°C 45.2°F7.3°C 84% Calm Calm -- 30.10 in1019.3 mb 0.00 in0.0 mm 0.00 in0.0 mm 0.00 in0.0 mm
07:00 AM 50.0°F10.0°C 45.4°F7.4°C 84% Calm Calm -- 30.11 in1019.6 mb 0.00 in0.0 mm 0.00 in0.0 mm 0.00 in0.0 mm
07:10 AM 50.1°F10.1°C 45.5°F7.5°C 84% Calm Calm -- 30.11 in1019.6 mb 0.00 in0.0 mm 0.00 in0.0 mm 0.00 in0.0 mm
07:20 AM 50.4°F10.2°C 45.8°F7.7°C 84% Calm Calm -- 30.11 in1019.6 mb 0.00 in0.0 mm 0.00 in0.0 mm 0.00 in0.0 mm
07:30 AM 50.7°F10.4°C 46.1°F7.8°C 84% Calm Calm -- 30.12 in1020.0 mb 0.00 in0.0 mm 0.00 in0.0 mm 0.00 in0.0 mm
07:40 AM 51.3°F10.7°C 47.0°F8.3°C 85% Calm Calm -- 30.12 in1020.0 mb 0.00 in0.0 mm 0.00 in0.0 mm 0.00 in0.0 mm
07:50 AM 52.0°F11.1°C 47.3°F8.5°C 84% Calm Calm 1.0 mph1.6 kmh 30.12 in1020.0 mb 0.00 in0.0 mm 0.00 in0.0 mm 0.00 in0.0 mm
08:00 AM 52.6°F11.4°C 47.9°F8.8°C 84% Calm Calm -- 30.12 in1020.0 mb 0.00 in0.0 mm 0.00 in0.0 mm 0.00 in0.0 mm
08:10 AM 53.4°F11.9°C 48.4°F9.1°C 83% Calm Calm 2.0 mph3.2 kmh 30.12 in1020.0 mb 0.00 in0.0 mm 0.00 in0.0 mm 0.00 in0.0 mm
08:20 AM 54.5°F12.5°C 49.1°F9.5°C 82% Calm Calm 3.0 mph4.8 kmh 30.12 in1020.0 mb 0.00 in0.0 mm 0.00 in0.0 mm 0.00 in0.0 mm
08:30 AM 55.0°F12.8°C 49.3°F9.6°C 81% Calm Calm -- 30.13 in1020.3 mb 0.00 in0.0 mm 0.00 in0.0 mm 0.00 in0.0 mm
08:40 AM 55.8°F13.2°C 49.4°F9.7°C 79% Calm Calm -- 30.13 in1020.3 mb 0.00 in0.0 mm 0.00 in0.0 mm 0.00 in0.0 mm
08:50 AM 56.5°F13.6°C 49.7°F9.8°C 78% Calm Calm -- 30.13 in1020.3 mb 0.00 in0.0 mm 0.00 in0.0 mm 0.00 in0.0 mm
09:00 AM 57.1°F13.9°C 50.3°F10.2°C 78% Calm Calm -- 30.13 in1020.3 mb 0.00 in0.0 mm 0.00 in0.0 mm 0.00 in0.0 mm
09:10 AM 57.8°F14.3°C 50.3°F10.2°C 76% Calm Calm 1.0 mph1.6 kmh 30.13 in1020.3 mb 0.00 in0.0 mm 0.00 in0.0 mm 0.00 in0.0 mm
09:20 AM 58.7°F14.8°C 50.8°F10.4°C 75% Calm Calm -- 30.13 in1020.3 mb 0.00 in0.0 mm 0.00 in0.0 mm 0.00 in0.0 mm
09:30 AM 60.5°F15.8°C 52.6°F11.4°C 75% Calm Calm 1.0 mph1.6 kmh 30.13 in1020.3 mb 0.00 in0.0 mm 0.00 in0.0 mm 0.00 in0.0 mm
09:40 AM 61.9°F16.6°C 52.4°F11.3°C 71% Calm Calm 1.0 mph1.6 kmh 30.13 in1020.3 mb 0.00 in0.0 mm 0.00 in0.0 mm 0.00 in0.0 mm
09:50 AM 62.9°F17.2°C 52.2°F11.2°C 68% Calm Calm 2.0 mph3.2 kmh 30.14 in1020.7 mb 0.00 in0.0 mm 0.00 in0.0 mm 0.00 in0.0 mm
10:00 AM 63.5°F17.5°C 52.8°F11.6°C 68% Calm Calm -- 30.13 in1020.3 mb 0.00 in0.0 mm 0.00 in0.0 mm 0.00 in0.0 mm
10:10 AM 64.9°F18.3°C 53.7°F12.1°C 67% 1.0 mph SSE1.6 kmh SSE 2.0 mph3.2 kmh 30.13 in1020.3 mb 0.00 in0.0 mm 0.00 in0.0 mm 0.00 in0.0 mm
10:20 AM 66.2°F19.0°C 54.1°F12.3°C 65% 5.0 mph SE8.0 kmh SE 6.0 mph9.7 kmh 30.13 in1020.3 mb 0.00 in0.0 mm 0.00 in0.0 mm 0.00 in0.0 mm
10:30 AM 66.7°F19.3°C 52.8°F11.6°C 61% Calm Calm 1.0 mph1.6 kmh 30.13 in1020.3 mb 0.00 in0.0 mm 0.00 in0.0 mm 0.00 in0.0 mm
10:40 AM 68.0°F20.0°C 52.7°F11.5°C 58% 3.0 mph S4.8 kmh S 5.0 mph8.0 kmh 30.13 in1020.3 mb 0.00 in0.0 mm 0.00 in0.0 mm 0.00 in0.0 mm
10:50 AM 68.6°F20.3°C 53.7°F12.1°C 59% 1.0 mph ESE1.6 kmh ESE 4.0 mph6.4 kmh 30.13 in1020.3 mb 0.00 in0.0 mm 0.00 in0.0 mm 0.00 in0.0 mm
11:00 AM 69.6°F20.9°C 54.2°F12.3°C 58% 2.0 mph SSE3.2 kmh SSE 5.0 mph8.0 kmh 30.13 in1020.3 mb 0.00 in0.0 mm 0.00 in0.0 mm 0.00 in0.0 mm
11:10 AM 70.6°F21.4°C 53.2°F11.8°C 54% Calm Calm 5.0 mph8.0 kmh 30.13 in1020.3 mb 0.00 in0.0 mm 0.00 in0.0 mm 0.00 in0.0 mm
11:20 AM 71.5°F21.9°C 53.5°F11.9°C 53% 1.0 mph SSE1.6 kmh SSE 9.0 mph14.5 kmh 30.13 in1020.3 mb 0.00 in0.0 mm 0.00 in0.0 mm 0.00 in0.0 mm
11:30 AM 71.8°F22.1°C 52.7°F11.5°C 51% 2.0 mph SSE3.2 kmh SSE 6.0 mph9.7 kmh 30.13 in1020.3 mb 0.00 in0.0 mm 0.00 in0.0 mm 0.00 in0.0 mm
11:40 AM 72.7°F22.6°C 54.6°F12.6°C 53% Calm Calm 5.0 mph8.0 kmh 30.13 in1020.3 mb 0.00 in0.0 mm 0.00 in0.0 mm 0.00 in0.0 mm
11:50 AM 73.1°F22.8°C 52.8°F11.6°C 49% Calm Calm 4.0 mph6.4 kmh 30.13 in1020.3 mb 0.00 in0.0 mm 0.00 in0.0 mm 0.00 in0.0 mm
12:00 PM 73.1°F22.8°C 51.1°F10.6°C 46% Calm Calm 5.0 mph8.0 kmh 30.13 in1020.3 mb 0.00 in0.0 mm 0.00 in0.0 mm 0.00 in0.0 mm
12:10 PM 72.2°F22.3°C 50.3°F10.2°C 46% Calm Calm 10.0 mph16.1 kmh 30.13 in1020.3 mb 0.00 in0.0 mm 0.00 in0.0 mm 0.00 in0.0 mm
12:20 PM 72.5°F22.5°C 50.6°F10.3°C 46% 5.0 mph S8.0 kmh S 12.0 mph19.3 kmh 30.13 in1020.3 mb 0.00 in0.0 mm 0.00 in0.0 mm 0.00 in0.0 mm
12:30 PM 74.2°F23.4°C 51.5°F10.8°C 45% 3.0 mph SSW4.8 kmh SSW 12.0 mph19.3 kmh 30.13 in1020.3 mb 0.00 in0.0 mm 0.00 in0.0 mm 0.00 in0.0 mm
12:40 PM 73.8°F23.2°C 49.9°F9.9°C 43% 4.0 mph SSW6.4 kmh SSW 11.0 mph17.7 kmh 30.13 in1020.3 mb 0.00 in0.0 mm 0.00 in0.0 mm 0.00 in0.0 mm
12:50 PM 74.7°F23.7°C 50.7°F10.4°C 43% 5.0 mph S8.0 kmh S 10.0 mph16.1 kmh 30.12 in1020.0 mb 0.00 in0.0 mm 0.00 in0.0 mm 0.00 in0.0 mm
01:00 PM 74.9°F23.8°C 50.3°F10.2°C 42% Calm Calm 12.0 mph19.3 kmh 30.12 in1020.0 mb 0.00 in0.0 mm 0.00 in0.0 mm 0.00 in0.0 mm
01:10 PM 75.3°F24.1°C 50.0°F10.0°C 41% 2.0 mph SSW3.2 kmh SSW 13.0 mph20.9 kmh 30.12 in1020.0 mb 0.00 in0.0 mm 0.00 in0.0 mm 0.00 in0.0 mm
01:20 PM 75.1°F23.9°C 49.8°F9.9°C 41% 4.0 mph SW6.4 kmh SW 13.0 mph20.9 kmh 30.12 in1020.0 mb 0.00 in0.0 mm 0.00 in0.0 mm 0.00 in0.0 mm
01:30 PM 75.8°F24.3°C 49.8°F9.9°C 40% 2.0 mph SSW3.2 kmh SSW 13.0 mph20.9 kmh 30.11 in1019.6 mb 0.00 in0.0 mm 0.00 in0.0 mm 0.00 in0.0 mm
01:40 PM 75.7°F24.3°C 51.0°F10.6°C 42% 9.0 mph S14.5 kmh S 9.0 mph14.5 kmh 30.11 in1019.6 mb 0.00 in0.0 mm 0.00 in0.0 mm 0.00 in0.0 mm
01:50 PM 76.0°F24.4°C 51.3°F10.7°C 42% 4.0 mph W6.4 kmh W 10.0 mph16.1 kmh 30.10 in1019.3 mb 0.00 in0.0 mm 0.00 in0.0 mm 0.00 in0.0 mm
02:00 PM 76.8°F24.9°C 50.0°F10.0°C 39% 3.0 mph WSW4.8 kmh WSW 11.0 mph17.7 kmh 30.10 in1019.3 mb 0.00 in0.0 mm 0.00 in0.0 mm 0.00 in0.0 mm
02:10 PM 76.7°F24.8°C 52.5°F11.4°C 43% 3.0 mph SW4.8 kmh SW 10.0 mph16.1 kmh 30.10 in1019.3 mb 0.00 in0.0 mm 0.00 in0.0 mm 0.00 in0.0 mm
02:20 PM 76.8°F24.9°C 49.3°F9.6°C 38% 5.0 mph SW8.0 kmh SW 10.0 mph16.1 kmh 30.10 in1019.3 mb 0.00 in0.0 mm 0.00 in0.0 mm 0.00 in0.0 mm
02:30 PM 76.5°F24.7°C 50.4°F10.2°C 40% 4.0 mph WSW6.4 kmh WSW 9.0 mph14.5 kmh 30.10 in1019.3 mb 0.00 in0.0 mm 0.00 in0.0 mm 0.00 in0.0 mm
02:40 PM 77.2°F25.1°C 51.0°F10.6°C 40% 10.0 mph WSW16.1 kmh WSW 17.0 mph27.4 kmh 30.09 in1019.0 mb 0.00 in0.0 mm 0.00 in0.0 mm 0.00 in0.0 mm
02:50 PM 76.8°F24.9°C 50.0°F10.0°C 39% 3.0 mph WSW4.8 kmh WSW 11.0 mph17.7 kmh 30.09 in1019.0 mb 0.00 in0.0 mm 0.00 in0.0 mm 0.00 in0.0 mm
03:00 PM 76.8°F24.9°C 50.7°F10.4°C 40% 3.0 mph WSW4.8 kmh WSW 11.0 mph17.7 kmh 30.09 in1019.0 mb 0.00 in0.0 mm 0.00 in0.0 mm 0.00 in0.0 mm
03:10 PM 76.9°F24.9°C 51.4°F10.8°C 41% 6.0 mph SSW9.7 kmh SSW 12.0 mph19.3 kmh 30.09 in1019.0 mb 0.00 in0.0 mm 0.00 in0.0 mm 0.00 in0.0 mm
03:20 PM 76.6°F24.8°C 50.5°F10.3°C 40% 4.0 mph WSW6.4 kmh WSW 15.0 mph24.1 kmh 30.08 in1018.6 mb 0.00 in0.0 mm 0.00 in0.0 mm 0.00 in0.0 mm
03:30 PM 77.3°F25.2°C 48.3°F9.1°C 36% 3.0 mph S4.8 kmh S 9.0 mph14.5 kmh 30.08 in1018.6 mb 0.00 in0.0 mm 0.00 in0.0 mm 0.00 in0.0 mm
03:40 PM 77.6°F25.3°C 51.4°F10.8°C 40% 6.0 mph S9.7 kmh S 11.0 mph17.7 kmh 30.08 in1018.6 mb 0.00 in0.0 mm 0.00 in0.0 mm 0.00 in0.0 mm
03:50 PM 77.8°F25.4°C 52.2°F11.2°C 41% 4.0 mph SW6.4 kmh SW 14.0 mph22.5 kmh 30.08 in1018.6 mb 0.00 in0.0 mm 0.00 in0.0 mm 0.00 in0.0 mm
04:00 PM 77.5°F25.3°C 53.9°F12.2°C 44% 8.0 mph SE12.9 kmh SE 11.0 mph17.7 kmh 30.07 in1018.3 mb 0.00 in0.0 mm 0.00 in0.0 mm 0.00 in0.0 mm
04:10 PM 77.5°F25.3°C 53.3°F11.8°C 43% Calm Calm 6.0 mph9.7 kmh 30.07 in1018.3 mb 0.00 in0.0 mm 0.00 in0.0 mm 0.00 in0.0 mm
04:20 PM 77.9°F25.5°C 50.3°F10.2°C 38% 5.0 mph S8.0 kmh S 19.0 mph30.6 kmh 30.07 in1018.3 mb 0.00 in0.0 mm 0.00 in0.0 mm 0.00 in0.0 mm
04:30 PM 77.4°F25.2°C 49.8°F9.9°C 38% 6.0 mph WSW9.7 kmh WSW 14.0 mph22.5 kmh 30.07 in1018.3 mb 0.00 in0.0 mm 0.00 in0.0 mm 0.00 in0.0 mm
04:40 PM 77.9°F25.5°C 50.3°F10.2°C 38% 6.0 mph SSW9.7 kmh SSW 12.0 mph19.3 kmh 30.07 in1018.3 mb 0.00 in0.0 mm 0.00 in0.0 mm 0.00 in0.0 mm
04:50 PM 77.6°F25.3°C 51.4°F10.8°C 40% 4.0 mph SSW6.4 kmh SSW 13.0 mph20.9 kmh 30.06 in1017.9 mb 0.00 in0.0 mm 0.00 in0.0 mm 0.00 in0.0 mm
05:00 PM 77.6°F25.3°C 52.1°F11.2°C 41% 3.0 mph SW4.8 kmh SW 15.0 mph24.1 kmh 30.06 in1017.9 mb 0.00 in0.0 mm 0.00 in0.0 mm 0.00 in0.0 mm
05:10 PM 77.2°F25.1°C 50.4°F10.2°C 39% 1.0 mph S1.6 kmh S 16.0 mph25.7 kmh 30.06 in1017.9 mb 0.00 in0.0 mm 0.00 in0.0 mm 0.00 in0.0 mm
05:20 PM 78.2°F25.7°C 52.6°F11.4°C 41% 3.0 mph SW4.8 kmh SW 6.0 mph9.7 kmh 30.06 in1017.9 mb 0.00 in0.0 mm 0.00 in0.0 mm 0.00 in0.0 mm
05:30 PM 77.8°F25.4°C 50.9°F10.5°C 39% Calm Calm 11.0 mph17.7 kmh 30.06 in1017.9 mb 0.00 in0.0 mm 0.00 in0.0 mm 0.00 in0.0 mm
05:40 PM 77.7°F25.4°C 50.8°F10.4°C 39% Calm Calm 12.0 mph19.3 kmh 30.06 in1017.9 mb 0.00 in0.0 mm 0.00 in0.0 mm 0.00 in0.0 mm
05:50 PM 77.4°F25.2°C 51.9°F11.1°C 41% 7.0 mph SSW11.3 kmh SSW 7.0 mph11.3 kmh 30.06 in1017.9 mb 0.00 in0.0 mm 0.00 in0.0 mm 0.00 in0.0 mm
06:00 PM 77.4°F25.2°C 49.8°F9.9°C 38% 6.0 mph SSW9.7 kmh SSW 12.0 mph19.3 kmh 30.06 in1017.9 mb 0.00 in0.0 mm 0.00 in0.0 mm 0.00 in0.0 mm
06:10 PM 77.3°F25.2°C 52.5°F11.4°C 42% 5.0 mph S8.0 kmh S 7.0 mph11.3 kmh 30.06 in1017.9 mb 0.00 in0.0 mm 0.00 in0.0 mm 0.00 in0.0 mm
06:20 PM 77.1°F25.1°C 52.3°F11.3°C 42% 4.0 mph SW6.4 kmh SW 7.0 mph11.3 kmh 30.06 in1017.9 mb 0.00 in0.0 mm 0.00 in0.0 mm 0.00 in0.0 mm
06:30 PM 77.4°F25.2°C 50.5°F10.3°C 39% Calm Calm 6.0 mph9.7 kmh 30.06 in1017.9 mb 0.00 in0.0 mm 0.00 in0.0 mm 0.00 in0.0 mm
06:40 PM 77.5°F25.3°C 48.5°F9.2°C 36% Calm Calm 10.0 mph16.1 kmh 30.06 in1017.9 mb 0.00 in0.0 mm 0.00 in0.0 mm 0.00 in0.0 mm
06:50 PM 77.0°F25.0°C 49.5°F9.7°C 38% 2.0 mph SW3.2 kmh SW 11.0 mph17.7 kmh 30.06 in1017.9 mb 0.00 in0.0 mm 0.00 in0.0 mm 0.00 in0.0 mm
07:00 PM 76.8°F24.9°C 51.3°F10.7°C 41% 6.0 mph S9.7 kmh S 9.0 mph14.5 kmh 30.06 in1017.9 mb 0.00 in0.0 mm 0.00 in0.0 mm 0.00 in0.0 mm
07:10 PM 76.4°F24.7°C 51.0°F10.6°C 41% 2.0 mph S3.2 kmh S 13.0 mph20.9 kmh 30.06 in1017.9 mb 0.00 in0.0 mm 0.00 in0.0 mm 0.00 in0.0 mm
07:20 PM 75.5°F24.2°C 51.5°F10.8°C 43% Calm Calm 5.0 mph8.0 kmh 30.06 in1017.9 mb 0.00 in0.0 mm 0.00 in0.0 mm 0.00 in0.0 mm
07:30 PM 75.6°F24.2°C 48.9°F9.4°C 39% 3.0 mph SSW4.8 kmh SSW 10.0 mph16.1 kmh 30.06 in1017.9 mb 0.00 in0.0 mm 0.00 in0.0 mm 0.00 in0.0 mm
07:40 PM 75.5°F24.2°C 49.5°F9.7°C 40% Calm Calm 7.0 mph11.3 kmh 30.06 in1017.9 mb 0.00 in0.0 mm 0.00 in0.0 mm 0.00 in0.0 mm
07:50 PM 75.2°F24.0°C 49.3°F9.6°C 40% Calm Calm 7.0 mph11.3 kmh 30.06 in1017.9 mb 0.00 in0.0 mm 0.00 in0.0 mm 0.00 in0.0 mm
08:00 PM 74.6°F23.7°C 50.0°F10.0°C 42% Calm Calm 6.0 mph9.7 kmh 30.06 in1017.9 mb 0.00 in0.0 mm 0.00 in0.0 mm 0.00 in0.0 mm
08:10 PM 73.7°F23.2°C 50.5°F10.3°C 44% 6.0 mph S9.7 kmh S 7.0 mph11.3 kmh 30.06 in1017.9 mb 0.00 in0.0 mm 0.00 in0.0 mm 0.00 in0.0 mm
08:20 PM 73.0°F22.8°C 49.8°F9.9°C 44% Calm Calm 5.0 mph8.0 kmh 30.06 in1017.9 mb 0.00 in0.0 mm 0.00 in0.0 mm 0.00 in0.0 mm
08:30 PM 72.2°F22.3°C 50.3°F10.2°C 46% Calm Calm 4.0 mph6.4 kmh 30.07 in1018.3 mb 0.00 in0.0 mm 0.00 in0.0 mm 0.00 in0.0 mm
08:40 PM 70.8°F21.6°C 49.6°F9.8°C 47% Calm Calm 2.0 mph3.2 kmh 30.07 in1018.3 mb 0.00 in0.0 mm 0.00 in0.0 mm 0.00 in0.0 mm
08:50 PM 69.6°F20.9°C 49.6°F9.8°C 49% Calm Calm 1.0 mph1.6 kmh 30.07 in1018.3 mb 0.00 in0.0 mm 0.00 in0.0 mm 0.00 in0.0 mm
09:00 PM 68.8°F20.4°C 49.4°F9.7°C 50% Calm Calm 1.0 mph1.6 kmh 30.07 in1018.3 mb 0.00 in0.0 mm 0.00 in0.0 mm 0.00 in0.0 mm
09:10 PM 68.2°F20.1°C 48.9°F9.4°C 50% Calm Calm 1.0 mph1.6 kmh 30.08 in1018.6 mb 0.00 in0.0 mm 0.00 in0.0 mm 0.00 in0.0 mm
09:20 PM 67.8°F19.9°C 49.0°F9.4°C 51% Calm Calm 1.0 mph1.6 kmh 30.08 in1018.6 mb 0.00 in0.0 mm 0.00 in0.0 mm 0.00 in0.0 mm
09:30 PM 67.1°F19.5°C 49.4°F9.7°C 53% Calm Calm -- 30.08 in1018.6 mb 0.00 in0.0 mm 0.00 in0.0 mm 0.00 in0.0 mm
09:40 PM 66.4°F19.1°C 49.3°F9.6°C 54% Calm Calm -- 30.08 in1018.6 mb 0.00 in0.0 mm 0.00 in0.0 mm 0.00 in0.0 mm
09:50 PM 65.8°F18.8°C 49.2°F9.6°C 55% Calm Calm 1.0 mph1.6 kmh 30.08 in1018.6 mb 0.00 in0.0 mm 0.00 in0.0 mm 0.00 in0.0 mm
10:00 PM 65.0°F18.3°C 49.4°F9.7°C 57% Calm Calm 1.0 mph1.6 kmh 30.09 in1019.0 mb 0.00 in0.0 mm 0.00 in0.0 mm 0.00 in0.0 mm
10:10 PM 64.7°F18.2°C 49.6°F9.8°C 58% Calm Calm 1.0 mph1.6 kmh 30.09 in1019.0 mb 0.00 in0.0 mm 0.00 in0.0 mm 0.00 in0.0 mm
10:20 PM 64.2°F17.9°C 49.6°F9.8°C 59% 2.0 mph S3.2 kmh S 2.0 mph3.2 kmh 30.09 in1019.0 mb 0.00 in0.0 mm 0.00 in0.0 mm 0.00 in0.0 mm
10:30 PM 63.8°F17.7°C 49.2°F9.6°C 59% Calm Calm 1.0 mph1.6 kmh 30.09 in1019.0 mb 0.00 in0.0 mm 0.00 in0.0 mm 0.00 in0.0 mm
10:40 PM 63.6°F17.6°C 49.5°F9.7°C 60% Calm Calm 2.0 mph3.2 kmh 30.09 in1019.0 mb 0.00 in0.0 mm 0.00 in0.0 mm 0.00 in0.0 mm
10:50 PM 63.4°F17.4°C 49.7°F9.8°C 61% Calm Calm 5.0 mph8.0 kmh 30.09 in1019.0 mb 0.00 in0.0 mm 0.00 in0.0 mm 0.00 in0.0 mm
11:00 PM 63.1°F17.3°C 49.5°F9.7°C 61% Calm Calm -- 30.09 in1019.0 mb 0.00 in0.0 mm 0.00 in0.0 mm 0.00 in0.0 mm
11:10 PM 62.8°F17.1°C 49.6°F9.8°C 62% 1.0 mph SSE1.6 kmh SSE 2.0 mph3.2 kmh 30.09 in1019.0 mb 0.00 in0.0 mm 0.00 in0.0 mm 0.00 in0.0 mm
11:20 PM 62.4°F16.9°C 49.7°F9.8°C 63% Calm Calm 1.0 mph1.6 kmh 30.09 in1019.0 mb 0.00 in0.0 mm 0.00 in0.0 mm 0.00 in0.0 mm
11:30 PM 62.0°F16.7°C 49.7°F9.8°C 64% Calm Calm 1.0 mph1.6 kmh 30.08 in1018.6 mb 0.00 in0.0 mm 0.00 in0.0 mm 0.00 in0.0 mm
11:40 PM 61.6°F16.4°C 49.7°F9.8°C 65% Calm Calm 1.0 mph1.6 kmh 30.08 in1018.6 mb 0.00 in0.0 mm 0.00 in0.0 mm 0.00 in0.0 mm
11:50 PM 61.4°F16.3°C 50.0°F10.0°C 66% Calm Calm 1.0 mph1.6 kmh 30.08 in1018.6 mb 0.00 in0.0 mm 0.00 in0.0 mm 0.00 in0.0 mm